sensor_id;sensor_type;location;lat;lon;timestamp;temperature;humidity
20568;DHT22;10442;49.932;11.592;2022-09-09T00:00:35;16.80;67.60
20568;DHT22;10442;49.932;11.592;2022-09-09T00:03:14;16.80;67.60
20568;DHT22;10442;49.932;11.592;2022-09-09T00:05:51;16.80;67.50
20568;DHT22;10442;49.932;11.592;2022-09-09T00:08:27;16.80;67.30
20568;DHT22;10442;49.932;11.592;2022-09-09T00:11:01;16.80;67.10
20568;DHT22;10442;49.932;11.592;2022-09-09T00:13:45;16.90;66.90
20568;DHT22;10442;49.932;11.592;2022-09-09T00:16:19;16.90;66.80
20568;DHT22;10442;49.932;11.592;2022-09-09T00:19:10;16.90;67.00
20568;DHT22;10442;49.932;11.592;2022-09-09T00:22:20;16.90;67.20
20568;DHT22;10442;49.932;11.592;2022-09-09T00:24:55;16.80;67.10
20568;DHT22;10442;49.932;11.592;2022-09-09T00:27:45;16.80;67.10
20568;DHT22;10442;49.932;11.592;2022-09-09T00:30:17;16.80;67.20
20568;DHT22;10442;49.932;11.592;2022-09-09T00:32:47;16.80;67.20
20568;DHT22;10442;49.932;11.592;2022-09-09T00:35:22;16.80;67.20
20568;DHT22;10442;49.932;11.592;2022-09-09T00:37:56;16.80;67.60
20568;DHT22;10442;49.932;11.592;2022-09-09T00:40:34;16.70;68.10
20568;DHT22;10442;49.932;11.592;2022-09-09T00:51:49;16.70;68.50
20568;DHT22;10442;49.932;11.592;2022-09-09T00:57:25;16.70;67.90
20568;DHT22;10442;49.932;11.592;2022-09-09T01:08:08;16.70;67.50
20568;DHT22;10442;49.932;11.592;2022-09-09T01:10:47;16.70;67.50
20568;DHT22;10442;49.932;11.592;2022-09-09T01:13:25;16.60;67.50
20568;DHT22;10442;49.932;11.592;2022-09-09T01:15:54;16.60;67.60
20568;DHT22;10442;49.932;11.592;2022-09-09T01:18:32;16.60;67.50
20568;DHT22;10442;49.932;11.592;2022-09-09T01:24:20;16.60;67.70
20568;DHT22;10442;49.932;11.592;2022-09-09T01:27:02;16.50;67.90
20568;DHT22;10442;49.932;11.592;2022-09-09T01:29:31;16.50;67.90
20568;DHT22;10442;49.932;11.592;2022-09-09T01:32:37;16.50;67.90
20568;DHT22;10442;49.932;11.592;2022-09-09T01:34:51;16.40;68.10
20568;DHT22;10442;49.932;11.592;2022-09-09T01:37:20;16.40;68.20
20568;DHT22;10442;49.932;11.592;2022-09-09T01:39:47;16.40;68.10
20568;DHT22;10442;49.932;11.592;2022-09-09T01:42:16;16.30;68.20
20568;DHT22;10442;49.932;11.592;2022-09-09T01:44:45;16.30;68.30
20568;DHT22;10442;49.932;11.592;2022-09-09T01:47:12;16.20;68.20
20568;DHT22;10442;49.932;11.592;2022-09-09T01:49:56;16.20;68.30
20568;DHT22;10442;49.932;11.592;2022-09-09T01:52:26;16.20;68.30
20568;DHT22;10442;49.932;11.592;2022-09-09T01:54:55;16.20;68.30
20568;DHT22;10442;49.932;11.592;2022-09-09T01:57:39;16.10;68.40
20568;DHT22;10442;49.932;11.592;2022-09-09T02:00:11;16.10;68.60
20568;DHT22;10442;49.932;11.592;2022-09-09T02:03:08;16.10;68.40
20568;DHT22;10442;49.932;11.592;2022-09-09T02:05:55;16.00;68.90
20568;DHT22;10442;49.932;11.592;2022-09-09T02:08:43;16.00;68.70
20568;DHT22;10442;49.932;11.592;2022-09-09T02:11:17;16.00;68.90
20568;DHT22;10442;49.932;11.592;2022-09-09T02:14:08;16.00;69.60
20568;DHT22;10442;49.932;11.592;2022-09-09T02:17:13;15.90;69.00
20568;DHT22;10442;49.932;11.592;2022-09-09T02:20:08;15.90;69.40
20568;DHT22;10442;49.932;11.592;2022-09-09T02:22:53;15.80;69.20
20568;DHT22;10442;49.932;11.592;2022-09-09T02:25:24;15.80;69.00
20568;DHT22;10442;49.932;11.592;2022-09-09T02:27:56;15.80;69.20
20568;DHT22;10442;49.932;11.592;2022-09-09T02:30:29;15.80;69.40
20568;DHT22;10442;49.932;11.592;2022-09-09T02:33:00;15.80;69.50
20568;DHT22;10442;49.932;11.592;2022-09-09T02:35:56;15.80;69.80
20568;DHT22;10442;49.932;11.592;2022-09-09T02:38:32;15.80;69.70
20568;DHT22;10442;49.932;11.592;2022-09-09T02:41:09;15.80;69.60
20568;DHT22;10442;49.932;11.592;2022-09-09T02:43:37;15.70;69.50
20568;DHT22;10442;49.932;11.592;2022-09-09T02:55:25;15.70;70.60
20568;DHT22;10442;49.932;11.592;2022-09-09T02:57:59;15.60;70.30
20568;DHT22;10442;49.932;11.592;2022-09-09T03:00:28;15.70;70.20
20568;DHT22;10442;49.932;11.592;2022-09-09T03:03:00;15.60;70.40
20568;DHT22;10442;49.932;11.592;2022-09-09T03:05:28;15.60;70.50
20568;DHT22;10442;49.932;11.592;2022-09-09T03:07:55;15.60;70.60
20568;DHT22;10442;49.932;11.592;2022-09-09T03:10:23;15.60;70.90
20568;DHT22;10442;49.932;11.592;2022-09-09T03:12:51;15.70;71.30
20568;DHT22;10442;49.932;11.592;2022-09-09T03:15:19;15.70;71.60
20568;DHT22;10442;49.932;11.592;2022-09-09T03:17:47;15.70;71.80
20568;DHT22;10442;49.932;11.592;2022-09-09T03:20:15;15.80;71.90
20568;DHT22;10442;49.932;11.592;2022-09-09T03:22:42;15.80;72.00
20568;DHT22;10442;49.932;11.592;2022-09-09T03:25:13;15.80;72.00
20568;DHT22;10442;49.932;11.592;2022-09-09T03:27:41;15.90;72.20
20568;DHT22;10442;49.932;11.592;2022-09-09T03:30:11;15.90;72.20
20568;DHT22;10442;49.932;11.592;2022-09-09T03:32:38;16.00;72.20
20568;DHT22;10442;49.932;11.592;2022-09-09T03:35:07;16.00;72.00
20568;DHT22;10442;49.932;11.592;2022-09-09T03:37:35;16.00;71.80
20568;DHT22;10442;49.932;11.592;2022-09-09T03:40:03;16.10;71.60
20568;DHT22;10442;49.932;11.592;2022-09-09T03:42:31;16.10;71.70
20568;DHT22;10442;49.932;11.592;2022-09-09T03:45:00;16.10;71.70
20568;DHT22;10442;49.932;11.592;2022-09-09T03:47:27;16.10;71.70
20568;DHT22;10442;49.932;11.592;2022-09-09T03:50:03;16.20;71.80
20568;DHT22;10442;49.932;11.592;2022-09-09T03:52:35;16.20;71.70
20568;DHT22;10442;49.932;11.592;2022-09-09T03:55:03;16.20;71.70
20568;DHT22;10442;49.932;11.592;2022-09-09T03:57:31;16.20;71.70
20568;DHT22;10442;49.932;11.592;2022-09-09T04:00:04;16.30;72.00
20568;DHT22;10442;49.932;11.592;2022-09-09T04:02:42;16.30;72.00
20568;DHT22;10442;49.932;11.592;2022-09-09T04:05:14;16.30;72.10
20568;DHT22;10442;49.932;11.592;2022-09-09T04:07:43;16.30;72.30
20568;DHT22;10442;49.932;11.592;2022-09-09T04:10:10;16.30;72.10
20568;DHT22;10442;49.932;11.592;2022-09-09T04:12:40;16.30;72.20
20568;DHT22;10442;49.932;11.592;2022-09-09T04:15:07;16.40;72.20
20568;DHT22;10442;49.932;11.592;2022-09-09T04:17:36;16.40;72.20
20568;DHT22;10442;49.932;11.592;2022-09-09T04:20:04;16.40;72.10
20568;DHT22;10442;49.932;11.592;2022-09-09T04:22:31;16.40;71.90
20568;DHT22;10442;49.932;11.592;2022-09-09T04:24:59;16.40;71.90
20568;DHT22;10442;49.932;11.592;2022-09-09T04:27:28;16.40;71.90
20568;DHT22;10442;49.932;11.592;2022-09-09T04:29:56;16.40;71.90
20568;DHT22;10442;49.932;11.592;2022-09-09T04:32:26;16.50;71.90
20568;DHT22;10442;49.932;11.592;2022-09-09T04:34:54;16.40;71.80
20568;DHT22;10442;49.932;11.592;2022-09-09T04:37:22;16.40;71.80
20568;DHT22;10442;49.932;11.592;2022-09-09T04:39:50;16.40;71.80
20568;DHT22;10442;49.932;11.592;2022-09-09T04:42:17;16.40;72.70
20568;DHT22;10442;49.932;11.592;2022-09-09T04:44:47;16.50;72.10
20568;DHT22;10442;49.932;11.592;2022-09-09T04:47:15;16.50;72.20
20568;DHT22;10442;49.932;11.592;2022-09-09T04:49:43;16.40;72.50
20568;DHT22;10442;49.932;11.592;2022-09-09T04:52:10;16.50;73.10
20568;DHT22;10442;49.932;11.592;2022-09-09T04:54:38;16.50;73.30
20568;DHT22;10442;49.932;11.592;2022-09-09T04:57:06;16.50;73.80
20568;DHT22;10442;49.932;11.592;2022-09-09T04:59:35;16.50;73.90
20568;DHT22;10442;49.932;11.592;2022-09-09T05:02:03;16.60;74.10
20568;DHT22;10442;49.932;11.592;2022-09-09T05:04:31;16.60;74.10
20568;DHT22;10442;49.932;11.592;2022-09-09T05:06:59;16.60;74.10
20568;DHT22;10442;49.932;11.592;2022-09-09T05:09:26;16.70;74.40
20568;DHT22;10442;49.932;11.592;2022-09-09T05:11:54;16.70;74.20
20568;DHT22;10442;49.932;11.592;2022-09-09T05:14:28;16.80;74.30
20568;DHT22;10442;49.932;11.592;2022-09-09T05:16:56;16.80;74.20
20568;DHT22;10442;49.932;11.592;2022-09-09T05:19:25;16.90;74.10
20568;DHT22;10442;49.932;11.592;2022-09-09T05:21:53;16.90;74.00
20568;DHT22;10442;49.932;11.592;2022-09-09T05:24:27;17.00;74.10
20568;DHT22;10442;49.932;11.592;2022-09-09T05:26:57;17.00;73.80
20568;DHT22;10442;49.932;11.592;2022-09-09T05:29:26;17.00;73.80
20568;DHT22;10442;49.932;11.592;2022-09-09T05:31:55;17.10;73.90
20568;DHT22;10442;49.932;11.592;2022-09-09T05:34:24;17.20;74.00
20568;DHT22;10442;49.932;11.592;2022-09-09T05:36:51;17.20;73.80
20568;DHT22;10442;49.932;11.592;2022-09-09T05:39:22;17.30;73.80
20568;DHT22;10442;49.932;11.592;2022-09-09T05:41:49;17.30;73.80
20568;DHT22;10442;49.932;11.592;2022-09-09T05:44:17;17.40;73.70
20568;DHT22;10442;49.932;11.592;2022-09-09T05:46:44;17.40;73.70
20568;DHT22;10442;49.932;11.592;2022-09-09T05:49:13;17.50;73.60
20568;DHT22;10442;49.932;11.592;2022-09-09T05:51:43;17.50;73.50
20568;DHT22;10442;49.932;11.592;2022-09-09T05:54:13;17.60;73.50
20568;DHT22;10442;49.932;11.592;2022-09-09T05:56:46;17.60;73.40
20568;DHT22;10442;49.932;11.592;2022-09-09T05:59:18;17.70;73.20
20568;DHT22;10442;49.932;11.592;2022-09-09T06:01:46;17.70;72.80
20568;DHT22;10442;49.932;11.592;2022-09-09T06:04:21;17.80;72.70
20568;DHT22;10442;49.932;11.592;2022-09-09T06:06:49;17.80;72.50
20568;DHT22;10442;49.932;11.592;2022-09-09T06:09:19;17.80;72.40
20568;DHT22;10442;49.932;11.592;2022-09-09T06:11:46;17.90;72.60
20568;DHT22;10442;49.932;11.592;2022-09-09T06:14:14;18.00;72.50
20568;DHT22;10442;49.932;11.592;2022-09-09T06:16:45;18.10;72.50
20568;DHT22;10442;49.932;11.592;2022-09-09T06:19:25;18.20;73.00
20568;DHT22;10442;49.932;11.592;2022-09-09T06:21:56;18.30;72.20
20568;DHT22;10442;49.932;11.592;2022-09-09T06:24:23;18.50;72.00
20568;DHT22;10442;49.932;11.592;2022-09-09T06:26:51;18.60;71.20
20568;DHT22;10442;49.932;11.592;2022-09-09T06:29:23;18.80;70.90
20568;DHT22;10442;49.932;11.592;2022-09-09T06:31:52;19.10;71.20
20568;DHT22;10442;49.932;11.592;2022-09-09T06:34:22;19.40;70.90
20568;DHT22;10442;49.932;11.592;2022-09-09T06:36:54;19.90;69.90
20568;DHT22;10442;49.932;11.592;2022-09-09T06:39:25;20.40;68.30
20568;DHT22;10442;49.932;11.592;2022-09-09T06:41:55;20.90;67.60
20568;DHT22;10442;49.932;11.592;2022-09-09T06:44:44;21.40;66.80
20568;DHT22;10442;49.932;11.592;2022-09-09T06:47:18;22.00;65.70
20568;DHT22;10442;49.932;11.592;2022-09-09T06:49:47;22.80;64.60
20568;DHT22;10442;49.932;11.592;2022-09-09T06:52:16;23.50;63.80
20568;DHT22;10442;49.932;11.592;2022-09-09T06:54:47;24.40;61.30
20568;DHT22;10442;49.932;11.592;2022-09-09T06:57:16;25.20;59.80
20568;DHT22;10442;49.932;11.592;2022-09-09T07:00:06;26.00;57.30
20568;DHT22;10442;49.932;11.592;2022-09-09T07:02:34;26.50;54.80
20568;DHT22;10442;49.932;11.592;2022-09-09T07:05:09;26.70;52.70
20568;DHT22;10442;49.932;11.592;2022-09-09T07:07:37;26.60;52.30
20568;DHT22;10442;49.932;11.592;2022-09-09T07:10:06;26.40;52.10
20568;DHT22;10442;49.932;11.592;2022-09-09T07:12:36;26.00;51.90
20568;DHT22;10442;49.932;11.592;2022-09-09T07:15:04;25.60;51.70
20568;DHT22;10442;49.932;11.592;2022-09-09T07:17:32;25.20;52.00
20568;DHT22;10442;49.932;11.592;2022-09-09T07:20:00;24.70;52.60
20568;DHT22;10442;49.932;11.592;2022-09-09T07:22:29;24.20;53.50
20568;DHT22;10442;49.932;11.592;2022-09-09T07:24:57;23.80;54.40
20568;DHT22;10442;49.932;11.592;2022-09-09T07:27:25;23.40;55.10
20568;DHT22;10442;49.932;11.592;2022-09-09T07:29:53;23.10;56.10
20568;DHT22;10442;49.932;11.592;2022-09-09T07:32:21;22.80;56.60
20568;DHT22;10442;49.932;11.592;2022-09-09T07:34:49;22.70;57.30
20568;DHT22;10442;49.932;11.592;2022-09-09T07:37:17;22.50;57.90
20568;DHT22;10442;49.932;11.592;2022-09-09T07:39:46;22.40;58.30
20568;DHT22;10442;49.932;11.592;2022-09-09T07:42:14;22.30;58.40
20568;DHT22;10442;49.932;11.592;2022-09-09T07:44:42;22.30;58.70
20568;DHT22;10442;49.932;11.592;2022-09-09T07:47:13;22.20;58.90
20568;DHT22;10442;49.932;11.592;2022-09-09T07:49:49;22.20;58.70
20568;DHT22;10442;49.932;11.592;2022-09-09T07:52:21;22.10;59.20
20568;DHT22;10442;49.932;11.592;2022-09-09T07:54:53;22.00;59.20
20568;DHT22;10442;49.932;11.592;2022-09-09T07:57:21;21.90;59.30
20568;DHT22;10442;49.932;11.592;2022-09-09T07:59:49;21.90;59.80
20568;DHT22;10442;49.932;11.592;2022-09-09T08:02:18;21.90;60.80
20568;DHT22;10442;49.932;11.592;2022-09-09T08:04:46;22.00;61.50
20568;DHT22;10442;49.932;11.592;2022-09-09T08:07:15;22.20;60.70
20568;DHT22;10442;49.932;11.592;2022-09-09T08:09:49;22.50;61.00
20568;DHT22;10442;49.932;11.592;2022-09-09T08:12:23;23.10;60.50
20568;DHT22;10442;49.932;11.592;2022-09-09T08:14:51;23.80;60.40
20568;DHT22;10442;49.932;11.592;2022-09-09T08:17:22;24.60;58.70
20568;DHT22;10442;49.932;11.592;2022-09-09T08:19:51;25.50;57.00
20568;DHT22;10442;49.932;11.592;2022-09-09T08:22:22;26.30;55.50
20568;DHT22;10442;49.932;11.592;2022-09-09T08:24:52;27.10;53.50
20568;DHT22;10442;49.932;11.592;2022-09-09T08:27:19;27.80;52.20
20568;DHT22;10442;49.932;11.592;2022-09-09T08:29:47;28.40;51.30
20568;DHT22;10442;49.932;11.592;2022-09-09T08:32:16;29.10;50.50
20568;DHT22;10442;49.932;11.592;2022-09-09T08:34:46;29.60;49.00
20568;DHT22;10442;49.932;11.592;2022-09-09T08:37:20;30.30;48.20
20568;DHT22;10442;49.932;11.592;2022-09-09T08:39:47;30.80;46.40
20568;DHT22;10442;49.932;11.592;2022-09-09T08:42:41;31.20;44.90
20568;DHT22;10442;49.932;11.592;2022-09-09T08:45:29;31.50;44.40
20568;DHT22;10442;49.932;11.592;2022-09-09T08:48:13;31.80;43.90
20568;DHT22;10442;49.932;11.592;2022-09-09T08:50:44;32.10;42.80
20568;DHT22;10442;49.932;11.592;2022-09-09T08:53:23;32.40;40.00
20568;DHT22;10442;49.932;11.592;2022-09-09T08:55:57;32.60;39.10
20568;DHT22;10442;49.932;11.592;2022-09-09T08:58:43;32.90;38.80
20568;DHT22;10442;49.932;11.592;2022-09-09T09:01:44;33.10;37.50
20568;DHT22;10442;49.932;11.592;2022-09-09T09:04:45;33.20;37.50
20568;DHT22;10442;49.932;11.592;2022-09-09T09:10:33;32.70;37.30
20568;DHT22;10442;49.932;11.592;2022-09-09T09:13:30;32.20;37.80
20568;DHT22;10442;49.932;11.592;2022-09-09T09:16:10;31.70;38.10
20568;DHT22;10442;49.932;11.592;2022-09-09T09:18:41;31.40;38.00
20568;DHT22;10442;49.932;11.592;2022-09-09T09:21:16;30.90;38.50
20568;DHT22;10442;49.932;11.592;2022-09-09T09:23:59;30.50;38.70
20568;DHT22;10442;49.932;11.592;2022-09-09T09:26:35;30.10;39.10
20568;DHT22;10442;49.932;11.592;2022-09-09T09:29:15;29.70;40.50
20568;DHT22;10442;49.932;11.592;2022-09-09T09:31:51;29.40;40.50
20568;DHT22;10442;49.932;11.592;2022-09-09T09:34:19;29.20;40.90
20568;DHT22;10442;49.932;11.592;2022-09-09T09:36:56;29.10;41.80
20568;DHT22;10442;49.932;11.592;2022-09-09T09:39:29;29.10;41.20
20568;DHT22;10442;49.932;11.592;2022-09-09T09:42:17;29.10;41.30
20568;DHT22;10442;49.932;11.592;2022-09-09T09:44:51;29.20;41.10
20568;DHT22;10442;49.932;11.592;2022-09-09T09:47:22;29.20;40.70
20568;DHT22;10442;49.932;11.592;2022-09-09T09:50:18;29.30;40.80
20568;DHT22;10442;49.932;11.592;2022-09-09T09:52:56;29.40;40.90
20568;DHT22;10442;49.932;11.592;2022-09-09T09:55:26;29.40;40.70
20568;DHT22;10442;49.932;11.592;2022-09-09T09:58:05;29.50;40.70
20568;DHT22;10442;49.932;11.592;2022-09-09T10:00:36;29.50;40.50
20568;DHT22;10442;49.932;11.592;2022-09-09T10:03:33;29.50;40.00
20568;DHT22;10442;49.932;11.592;2022-09-09T10:06:06;29.40;39.80
20568;DHT22;10442;49.932;11.592;2022-09-09T10:08:43;29.20;40.10
20568;DHT22;10442;49.932;11.592;2022-09-09T10:14:31;28.60;40.60
20568;DHT22;10442;49.932;11.592;2022-09-09T10:19:50;28.20;41.80
20568;DHT22;10442;49.932;11.592;2022-09-09T10:22:33;28.10;41.70
20568;DHT22;10442;49.932;11.592;2022-09-09T10:25:04;28.00;41.90
20568;DHT22;10442;49.932;11.592;2022-09-09T10:30:54;28.10;42.60
20568;DHT22;10442;49.932;11.592;2022-09-09T10:33:41;28.10;42.00
20568;DHT22;10442;49.932;11.592;2022-09-09T10:36:39;28.10;41.80
20568;DHT22;10442;49.932;11.592;2022-09-09T10:39:35;28.10;42.10
20568;DHT22;10442;49.932;11.592;2022-09-09T10:42:12;28.10;42.30
20568;DHT22;10442;49.932;11.592;2022-09-09T10:44:54;28.00;41.90
20568;DHT22;10442;49.932;11.592;2022-09-09T10:47:56;27.90;41.80
20568;DHT22;10442;49.932;11.592;2022-09-09T10:50:47;27.70;42.00
20568;DHT22;10442;49.932;11.592;2022-09-09T10:56:22;27.40;41.70
20568;DHT22;10442;49.932;11.592;2022-09-09T10:59:14;27.20;41.70
20568;DHT22;10442;49.932;11.592;2022-09-09T11:01:58;27.10;42.20
20568;DHT22;10442;49.932;11.592;2022-09-09T11:04:32;27.10;42.20
20568;DHT22;10442;49.932;11.592;2022-09-09T11:07:06;27.10;42.30
20568;DHT22;10442;49.932;11.592;2022-09-09T11:09:43;27.10;41.60
20568;DHT22;10442;49.932;11.592;2022-09-09T11:12:17;27.10;41.70
20568;DHT22;10442;49.932;11.592;2022-09-09T11:14:51;27.10;41.90
20568;DHT22;10442;49.932;11.592;2022-09-09T11:17:30;27.00;41.90
20568;DHT22;10442;49.932;11.592;2022-09-09T11:20:00;26.90;43.10
20568;DHT22;10442;49.932;11.592;2022-09-09T11:22:37;26.80;44.40
20568;DHT22;10442;49.932;11.592;2022-09-09T11:25:14;26.70;45.50
20568;DHT22;10442;49.932;11.592;2022-09-09T11:28:11;26.50;44.80
20568;DHT22;10442;49.932;11.592;2022-09-09T11:39:22;25.80;48.40
20568;DHT22;10442;49.932;11.592;2022-09-09T11:41:52;25.70;49.20
20568;DHT22;10442;49.932;11.592;2022-09-09T11:44:30;25.60;49.20
20568;DHT22;10442;49.932;11.592;2022-09-09T11:46:57;25.70;49.40
20568;DHT22;10442;49.932;11.592;2022-09-09T11:49:42;25.80;50.00
20568;DHT22;10442;49.932;11.592;2022-09-09T11:52:23;25.90;48.60
20568;DHT22;10442;49.932;11.592;2022-09-09T11:54:55;25.90;47.60
20568;DHT22;10442;49.932;11.592;2022-09-09T11:57:31;26.00;47.70
20568;DHT22;10442;49.932;11.592;2022-09-09T11:59:59;26.00;47.10
20568;DHT22;10442;49.932;11.592;2022-09-09T12:02:28;25.90;46.90
20568;DHT22;10442;49.932;11.592;2022-09-09T12:05:11;25.90;47.10
20568;DHT22;10442;49.932;11.592;2022-09-09T12:07:42;25.80;46.90
20568;DHT22;10442;49.932;11.592;2022-09-09T12:10:26;25.80;47.50
20568;DHT22;10442;49.932;11.592;2022-09-09T12:12:54;25.70;47.90
20568;DHT22;10442;49.932;11.592;2022-09-09T12:15:26;25.60;50.90
20568;DHT22;10442;49.932;11.592;2022-09-09T12:17:57;25.50;52.00
20568;DHT22;10442;49.932;11.592;2022-09-09T12:23:58;25.10;52.40
20568;DHT22;10442;49.932;11.592;2022-09-09T12:26:26;24.80;53.50
20568;DHT22;10442;49.932;11.592;2022-09-09T12:34:50;24.20;56.70
20568;DHT22;10442;49.932;11.592;2022-09-09T12:37:27;24.10;55.50
20568;DHT22;10442;49.932;11.592;2022-09-09T12:40:01;24.10;55.70
20568;DHT22;10442;49.932;11.592;2022-09-09T12:42:30;24.10;54.80
20568;DHT22;10442;49.932;11.592;2022-09-09T12:45:19;24.10;54.80
20568;DHT22;10442;49.932;11.592;2022-09-09T12:47:55;24.20;55.80
20568;DHT22;10442;49.932;11.592;2022-09-09T12:50:26;24.20;56.90
20568;DHT22;10442;49.932;11.592;2022-09-09T12:52:57;24.30;56.60
20568;DHT22;10442;49.932;11.592;2022-09-09T12:55:29;24.30;55.30
20568;DHT22;10442;49.932;11.592;2022-09-09T12:57:58;24.30;57.10
20568;DHT22;10442;49.932;11.592;2022-09-09T13:00:27;24.40;56.90
20568;DHT22;10442;49.932;11.592;2022-09-09T13:02:58;24.40;56.30
20568;DHT22;10442;49.932;11.592;2022-09-09T13:05:31;24.40;55.50
20568;DHT22;10442;49.932;11.592;2022-09-09T13:08:02;24.40;56.60
20568;DHT22;10442;49.932;11.592;2022-09-09T13:10:34;24.40;57.30
20568;DHT22;10442;49.932;11.592;2022-09-09T13:13:24;24.40;57.50
20568;DHT22;10442;49.932;11.592;2022-09-09T13:15:57;24.40;58.00
20568;DHT22;10442;49.932;11.592;2022-09-09T13:18:36;24.50;57.60
20568;DHT22;10442;49.932;11.592;2022-09-09T13:21:05;24.50;56.70
20568;DHT22;10442;49.932;11.592;2022-09-09T13:23:35;24.50;57.50
20568;DHT22;10442;49.932;11.592;2022-09-09T13:26:24;24.50;58.10
20568;DHT22;10442;49.932;11.592;2022-09-09T13:28:53;24.50;58.50
20568;DHT22;10442;49.932;11.592;2022-09-09T13:31:27;24.60;58.40
20568;DHT22;10442;49.932;11.592;2022-09-09T13:33:54;24.60;58.30
20568;DHT22;10442;49.932;11.592;2022-09-09T13:36:31;24.70;57.60
20568;DHT22;10442;49.932;11.592;2022-09-09T13:38:59;24.80;57.10
20568;DHT22;10442;49.932;11.592;2022-09-09T13:41:35;24.70;55.40
20568;DHT22;10442;49.932;11.592;2022-09-09T13:44:04;24.60;53.00
20568;DHT22;10442;49.932;11.592;2022-09-09T13:46:39;24.50;53.50
20568;DHT22;10442;49.932;11.592;2022-09-09T13:54:10;24.20;53.30
20568;DHT22;10442;49.932;11.592;2022-09-09T13:56:39;24.10;53.90
20568;DHT22;10442;49.932;11.592;2022-09-09T13:59:12;24.00;53.80
20568;DHT22;10442;49.932;11.592;2022-09-09T14:01:40;23.90;53.00
20568;DHT22;10442;49.932;11.592;2022-09-09T14:04:09;23.80;52.90
20568;DHT22;10442;49.932;11.592;2022-09-09T14:06:36;23.70;52.40
20568;DHT22;10442;49.932;11.592;2022-09-09T14:09:06;23.70;53.50
20568;DHT22;10442;49.932;11.592;2022-09-09T14:11:35;23.60;53.80
20568;DHT22;10442;49.932;11.592;2022-09-09T14:14:02;23.60;53.60
20568;DHT22;10442;49.932;11.592;2022-09-09T14:16:30;23.50;53.00
20568;DHT22;10442;49.932;11.592;2022-09-09T14:18:58;23.50;53.00
20568;DHT22;10442;49.932;11.592;2022-09-09T14:21:27;23.50;53.10
20568;DHT22;10442;49.932;11.592;2022-09-09T14:23:55;23.50;53.00
20568;DHT22;10442;49.932;11.592;2022-09-09T14:26:25;23.60;52.40
20568;DHT22;10442;49.932;11.592;2022-09-09T14:28:53;23.60;52.00
20568;DHT22;10442;49.932;11.592;2022-09-09T14:31:23;23.70;52.70
20568;DHT22;10442;49.932;11.592;2022-09-09T14:33:51;23.70;52.60
20568;DHT22;10442;49.932;11.592;2022-09-09T14:36:20;23.80;52.30
20568;DHT22;10442;49.932;11.592;2022-09-09T14:38:47;23.90;51.30
20568;DHT22;10442;49.932;11.592;2022-09-09T14:41:17;24.00;50.70
20568;DHT22;10442;49.932;11.592;2022-09-09T14:43:45;24.00;50.40
20568;DHT22;10442;49.932;11.592;2022-09-09T14:46:17;24.00;50.50
20568;DHT22;10442;49.932;11.592;2022-09-09T14:48:46;24.00;50.60
20568;DHT22;10442;49.932;11.592;2022-09-09T14:51:22;24.00;50.80
20568;DHT22;10442;49.932;11.592;2022-09-09T14:53:52;24.00;50.00
20568;DHT22;10442;49.932;11.592;2022-09-09T14:56:26;24.00;50.50
20568;DHT22;10442;49.932;11.592;2022-09-09T14:58:55;24.10;50.30
20568;DHT22;10442;49.932;11.592;2022-09-09T15:01:24;24.10;50.20
20568;DHT22;10442;49.932;11.592;2022-09-09T15:03:59;24.10;50.60
20568;DHT22;10442;49.932;11.592;2022-09-09T15:06:32;24.10;50.50
20568;DHT22;10442;49.932;11.592;2022-09-09T15:09:01;24.10;50.20
20568;DHT22;10442;49.932;11.592;2022-09-09T15:11:33;24.20;50.30
20568;DHT22;10442;49.932;11.592;2022-09-09T15:14:06;24.20;50.30
20568;DHT22;10442;49.932;11.592;2022-09-09T15:16:34;24.20;50.40
20568;DHT22;10442;49.932;11.592;2022-09-09T15:19:03;24.20;49.70
20568;DHT22;10442;49.932;11.592;2022-09-09T15:21:35;24.20;50.10
20568;DHT22;10442;49.932;11.592;2022-09-09T15:24:03;24.10;50.20
20568;DHT22;10442;49.932;11.592;2022-09-09T15:26:31;24.00;50.60
20568;DHT22;10442;49.932;11.592;2022-09-09T15:28:59;24.00;50.90
20568;DHT22;10442;49.932;11.592;2022-09-09T15:31:29;24.00;50.60
20568;DHT22;10442;49.932;11.592;2022-09-09T15:33:59;23.90;51.00
20568;DHT22;10442;49.932;11.592;2022-09-09T15:36:41;23.90;50.60
20568;DHT22;10442;49.932;11.592;2022-09-09T15:39:12;23.90;51.30
20568;DHT22;10442;49.932;11.592;2022-09-09T15:41:46;23.90;51.60
20568;DHT22;10442;49.932;11.592;2022-09-09T15:44:14;23.90;52.50
20568;DHT22;10442;49.932;11.592;2022-09-09T15:46:50;23.90;51.20
20568;DHT22;10442;49.932;11.592;2022-09-09T15:49:26;23.80;51.30
20568;DHT22;10442;49.932;11.592;2022-09-09T15:51:58;23.80;51.20
20568;DHT22;10442;49.932;11.592;2022-09-09T15:54:26;23.80;50.80
20568;DHT22;10442;49.932;11.592;2022-09-09T15:56:56;23.70;51.10
20568;DHT22;10442;49.932;11.592;2022-09-09T15:59:25;23.70;51.40
20568;DHT22;10442;49.932;11.592;2022-09-09T16:01:53;23.70;51.50
20568;DHT22;10442;49.932;11.592;2022-09-09T16:04:23;23.70;51.40
20568;DHT22;10442;49.932;11.592;2022-09-09T16:06:52;23.70;51.50
20568;DHT22;10442;49.932;11.592;2022-09-09T16:09:20;23.60;52.10
20568;DHT22;10442;49.932;11.592;2022-09-09T16:11:48;23.60;53.40
20568;DHT22;10442;49.932;11.592;2022-09-09T16:14:16;23.60;54.10
20568;DHT22;10442;49.932;11.592;2022-09-09T16:16:44;23.40;55.00
20568;DHT22;10442;49.932;11.592;2022-09-09T16:19:12;23.30;55.30
20568;DHT22;10442;49.932;11.592;2022-09-09T16:21:42;23.20;55.60
20568;DHT22;10442;49.932;11.592;2022-09-09T16:24:13;23.10;55.80
20568;DHT22;10442;49.932;11.592;2022-09-09T16:26:43;23.00;57.00
20568;DHT22;10442;49.932;11.592;2022-09-09T16:29:15;22.90;56.40
20568;DHT22;10442;49.932;11.592;2022-09-09T16:31:43;22.80;56.50
20568;DHT22;10442;49.932;11.592;2022-09-09T16:34:11;22.70;56.90
20568;DHT22;10442;49.932;11.592;2022-09-09T16:36:40;22.70;57.30
20568;DHT22;10442;49.932;11.592;2022-09-09T16:39:14;22.60;57.90
20568;DHT22;10442;49.932;11.592;2022-09-09T16:41:42;22.50;58.20
20568;DHT22;10442;49.932;11.592;2022-09-09T16:44:12;22.40;58.60
20568;DHT22;10442;49.932;11.592;2022-09-09T16:46:41;22.30;57.40
20568;DHT22;10442;49.932;11.592;2022-09-09T16:49:11;22.30;58.80
20568;DHT22;10442;49.932;11.592;2022-09-09T16:51:41;22.30;59.80
20568;DHT22;10442;49.932;11.592;2022-09-09T16:54:09;22.20;59.30
20568;DHT22;10442;49.932;11.592;2022-09-09T16:56:40;22.20;59.20
20568;DHT22;10442;49.932;11.592;2022-09-09T16:59:13;22.10;59.10
20568;DHT22;10442;49.932;11.592;2022-09-09T17:01:41;22.10;58.80